createdAt,value
2022-09-24T00:01:15.298Z,100.00
2022-09-24T00:03:48.067Z,100.00
2022-09-24T00:06:14.872Z,100.00
2022-09-24T00:08:42.174Z,100.00
2022-09-24T00:11:12.198Z,100.00
2022-09-24T00:13:39.414Z,100.00
2022-09-24T00:16:10.512Z,100.00
2022-09-24T00:18:37.977Z,100.00
2022-09-24T00:21:27.001Z,100.00
2022-09-24T00:23:56.793Z,100.00
2022-09-24T00:26:42.835Z,100.00
2022-09-24T00:29:11.300Z,100.00
2022-09-24T00:31:38.227Z,100.00
2022-09-24T00:34:05.377Z,100.00
2022-09-24T00:36:32.184Z,100.00
2022-09-24T00:39:00.025Z,100.00
2022-09-24T00:41:29.863Z,100.00
2022-09-24T00:43:57.557Z,100.00
2022-09-24T00:46:41.390Z,100.00
2022-09-24T00:49:14.869Z,100.00
2022-09-24T00:51:44.173Z,100.00
2022-09-24T00:54:16.115Z,100.00
2022-09-24T00:56:45.124Z,100.00
2022-09-24T00:59:17.485Z,100.00
2022-09-24T01:01:46.504Z,100.00
2022-09-24T01:04:14.804Z,100.00
2022-09-24T01:06:41.714Z,100.00
2022-09-24T01:09:09.283Z,100.00
2022-09-24T01:12:08.423Z,100.00
2022-09-24T01:14:54.745Z,100.00
2022-09-24T01:17:39.657Z,100.00
2022-09-24T01:20:25.100Z,100.00
2022-09-24T01:26:00.213Z,100.00
2022-09-24T01:28:35.790Z,100.00
2022-09-24T01:31:24.005Z,100.00
2022-09-24T01:33:54.610Z,100.00
2022-09-24T01:36:22.999Z,100.00
2022-09-24T01:38:53.493Z,100.00
2022-09-24T01:41:21.915Z,100.00
2022-09-24T01:43:49.483Z,100.00
2022-09-24T01:46:19.813Z,100.00
2022-09-24T01:48:47.189Z,100.00
2022-09-24T01:51:23.709Z,100.00
2022-09-24T01:54:12.000Z,100.00
2022-09-24T01:57:22.313Z,100.00
2022-09-24T02:00:01.573Z,100.00
2022-09-24T02:02:39.836Z,100.00
2022-09-24T02:05:19.875Z,100.00
2022-09-24T02:07:52.647Z,100.00
2022-09-24T02:10:21.102Z,100.00
2022-09-24T02:12:56.849Z,100.00
2022-09-24T02:15:32.823Z,100.00
2022-09-24T02:18:06.147Z,100.00
2022-09-24T02:20:36.246Z,100.00
2022-09-24T02:23:04.147Z,100.00
2022-09-24T02:25:39.575Z,100.00
2022-09-24T02:28:06.264Z,100.00
2022-09-24T02:30:40.571Z,100.00
2022-09-24T02:33:31.082Z,100.00
2022-09-24T02:35:57.917Z,100.00
2022-09-24T02:38:24.595Z,100.00
2022-09-24T02:40:53.241Z,100.00
2022-09-24T02:43:20.135Z,100.00
2022-09-24T02:45:46.869Z,100.00
2022-09-24T02:48:13.588Z,100.00
2022-09-24T02:50:40.313Z,100.00
2022-09-24T02:53:07.057Z,100.00
2022-09-24T02:55:33.797Z,100.00
2022-09-24T02:58:00.514Z,100.00
2022-09-24T03:00:27.216Z,100.00
2022-09-24T03:02:54.180Z,100.00
2022-09-24T03:05:22.100Z,100.00
2022-09-24T03:07:48.832Z,100.00
2022-09-24T03:10:15.563Z,100.00
2022-09-24T03:12:43.882Z,100.00
2022-09-24T03:15:11.134Z,100.00
2022-09-24T03:17:37.917Z,100.00
2022-09-24T03:20:05.164Z,100.00
2022-09-24T03:22:31.878Z,100.00
2022-09-24T03:24:58.573Z,100.00
2022-09-24T03:27:25.382Z,100.00
2022-09-24T03:30:10.607Z,100.00
2022-09-24T03:32:39.379Z,100.00
2022-09-24T03:35:06.396Z,100.00
2022-09-24T03:37:36.665Z,100.00
2022-09-24T03:40:06.007Z,100.00
2022-09-24T03:42:34.282Z,100.00
2022-09-24T03:45:01.150Z,100.00
2022-09-24T03:47:28.372Z,100.00
2022-09-24T03:49:55.184Z,100.00
2022-09-24T03:52:21.908Z,100.00
2022-09-24T03:54:48.666Z,100.00
2022-09-24T03:57:15.454Z,100.00
2022-09-24T03:59:43.430Z,100.00
2022-09-24T04:02:11.685Z,100.00
2022-09-24T04:04:38.774Z,100.00
2022-09-24T04:07:06.048Z,100.00
2022-09-24T04:09:32.783Z,100.00
2022-09-24T04:11:59.513Z,100.00
2022-09-24T04:14:26.183Z,100.00
2022-09-24T04:16:53.725Z,100.00
2022-09-24T04:19:20.973Z,100.00
2022-09-24T04:21:47.761Z,100.00
2022-09-24T04:24:14.542Z,100.00
2022-09-24T04:26:41.203Z,100.00
2022-09-24T04:29:08.198Z,100.00
2022-09-24T04:31:35.004Z,100.00
2022-09-24T04:34:02.139Z,100.00
2022-09-24T04:36:28.836Z,100.00
2022-09-24T04:38:57.123Z,100.00
2022-09-24T04:41:23.822Z,100.00
2022-09-24T04:43:51.466Z,100.00
2022-09-24T04:46:19.362Z,100.00
2022-09-24T04:48:46.146Z,100.00
2022-09-24T04:51:12.854Z,100.00
2022-09-24T04:53:39.634Z,100.00
2022-09-24T04:56:12.075Z,100.00
2022-09-24T04:58:39.981Z,100.00
2022-09-24T05:01:06.908Z,100.00
2022-09-24T05:03:33.803Z,100.00
2022-09-24T05:06:02.116Z,100.00
2022-09-24T05:08:30.799Z,100.00
2022-09-24T05:10:57.570Z,100.00
2022-09-24T05:13:24.254Z,100.00
2022-09-24T05:15:51.119Z,100.00
2022-09-24T05:18:17.851Z,100.00
2022-09-24T05:20:44.626Z,100.00
2022-09-24T05:23:11.352Z,100.00
2022-09-24T05:25:58.044Z,100.00
2022-09-24T05:28:24.933Z,100.00
2022-09-24T05:30:51.705Z,100.00
2022-09-24T05:33:18.555Z,100.00
2022-09-24T05:35:45.261Z,100.00
2022-09-24T05:38:11.934Z,100.00
2022-09-24T05:40:50.858Z,100.00
2022-09-24T05:43:19.487Z,100.00
2022-09-24T05:45:46.485Z,100.00
2022-09-24T05:48:13.449Z,100.00
2022-09-24T05:50:40.276Z,100.00
2022-09-24T05:53:07.190Z,100.00
2022-09-24T05:55:33.874Z,100.00
2022-09-24T05:58:11.000Z,100.00
2022-09-24T06:00:38.184Z,100.00
2022-09-24T06:03:13.855Z,100.00
2022-09-24T06:05:48.653Z,100.00
2022-09-24T06:08:19.975Z,100.00
2022-09-24T06:10:47.510Z,100.00
2022-09-24T06:13:18.267Z,100.00
2022-09-24T06:15:45.815Z,100.00
2022-09-24T06:18:13.020Z,100.00
2022-09-24T06:20:40.365Z,100.00
2022-09-24T06:23:07.899Z,100.00
2022-09-24T06:25:34.834Z,100.00
2022-09-24T06:28:04.372Z,100.00
2022-09-24T06:30:34.660Z,100.00
2022-09-24T06:33:07.347Z,100.00
2022-09-24T06:35:36.237Z,100.00
2022-09-24T06:38:04.028Z,100.00
2022-09-24T06:40:36.234Z,100.00
2022-09-24T06:43:03.983Z,100.00
2022-09-24T06:45:30.979Z,100.00
2022-09-24T06:48:00.135Z,100.00
2022-09-24T06:50:29.318Z,100.00
2022-09-24T06:52:59.432Z,100.00
2022-09-24T06:55:26.699Z,100.00
2022-09-24T06:58:15.739Z,100.00
2022-09-24T07:00:43.332Z,100.00
2022-09-24T07:03:16.812Z,100.00
2022-09-24T07:05:44.142Z,100.00
2022-09-24T07:08:10.972Z,100.00
2022-09-24T07:10:42.322Z,100.00
2022-09-24T07:13:11.292Z,100.00
2022-09-24T07:15:38.157Z,100.00
2022-09-24T07:18:05.016Z,100.00
2022-09-24T07:20:33.621Z,100.00
2022-09-24T07:23:00.423Z,100.00
2022-09-24T07:25:27.221Z,100.00
2022-09-24T07:27:54.069Z,100.00
2022-09-24T07:30:20.874Z,100.00
2022-09-24T07:32:50.670Z,100.00
2022-09-24T07:35:18.453Z,100.00
2022-09-24T07:37:45.192Z,100.00
2022-09-24T07:40:12.088Z,100.00
2022-09-24T07:42:47.026Z,100.00
2022-09-24T07:45:13.748Z,100.00
2022-09-24T07:47:40.614Z,100.00
2022-09-24T07:50:07.665Z,100.00
2022-09-24T07:52:34.360Z,100.00
2022-09-24T07:55:01.224Z,100.00
2022-09-24T07:57:28.104Z,100.00
2022-09-24T07:59:54.802Z,100.00
2022-09-24T08:02:21.514Z,100.00
2022-09-24T08:04:49.217Z,100.00
2022-09-24T08:07:15.958Z,100.00
2022-09-24T08:09:42.682Z,100.00
2022-09-24T08:12:11.340Z,100.00
2022-09-24T08:14:38.083Z,96.48
2022-09-24T08:17:04.785Z,94.86
2022-09-24T08:19:33.265Z,94.59
2022-09-24T08:22:00.165Z,94.63
2022-09-24T08:24:26.857Z,93.57
2022-09-24T08:26:53.555Z,90.56
2022-09-24T08:29:22.395Z,81.70
2022-09-24T08:31:49.337Z,82.36
2022-09-24T08:34:16.182Z,74.58
2022-09-24T08:36:43.466Z,78.66
2022-09-24T08:39:10.672Z,75.76
2022-09-24T08:41:46.347Z,77.79
2022-09-24T08:45:00.256Z,75.02
2022-09-24T08:47:48.356Z,78.52
2022-09-24T08:50:17.537Z,72.34
2022-09-24T08:52:49.741Z,72.97
2022-09-24T08:55:46.186Z,75.02
2022-09-24T08:58:47.535Z,73.61
2022-09-24T09:01:22.269Z,69.97
2022-09-24T09:04:34.324Z,68.79
2022-09-24T09:07:21.729Z,66.94
2022-09-24T09:10:03.887Z,69.41
2022-09-24T09:12:34.426Z,66.90
2022-09-24T09:15:24.884Z,64.89
2022-09-24T09:18:16.586Z,66.32
2022-09-24T09:20:45.836Z,65.39
2022-09-24T09:23:17.896Z,59.33
2022-09-24T09:25:53.284Z,59.81
2022-09-24T09:28:20.549Z,60.84
2022-09-24T09:30:53.248Z,62.73
2022-09-24T09:33:24.784Z,66.01
2022-09-24T09:35:54.438Z,58.12
2022-09-24T09:38:29.964Z,59.83
2022-09-24T09:41:06.919Z,57.15
2022-09-24T09:43:33.921Z,60.59
2022-09-24T09:46:19.146Z,60.04
2022-09-24T09:48:52.426Z,62.69
2022-09-24T09:51:23.225Z,58.76
2022-09-24T09:53:57.894Z,59.68
2022-09-24T09:56:35.203Z,66.25
2022-09-24T09:59:19.127Z,67.55
2022-09-24T10:01:49.509Z,61.44
2022-09-24T10:04:24.529Z,71.97
2022-09-24T10:06:51.244Z,66.67
2022-09-24T10:09:20.812Z,64.28
2022-09-24T10:11:48.499Z,60.01
2022-09-24T10:14:18.342Z,61.46
2022-09-24T10:16:47.884Z,61.41
2022-09-24T10:19:23.056Z,58.74
2022-09-24T10:21:51.975Z,60.86
2022-09-24T10:24:27.906Z,60.80
2022-09-24T10:26:54.786Z,59.73
2022-09-24T10:29:46.481Z,63.43
2022-09-24T10:32:24.614Z,67.96
2022-09-24T10:35:02.218Z,66.62
2022-09-24T10:37:30.059Z,66.52
2022-09-24T10:40:00.022Z,65.84
2022-09-24T10:42:31.193Z,59.81
2022-09-24T10:45:03.690Z,61.22
2022-09-24T10:47:52.776Z,62.30
2022-09-24T10:50:38.112Z,57.17
2022-09-24T10:53:13.694Z,58.64
2022-09-24T10:55:47.707Z,58.02
2022-09-24T10:58:26.495Z,55.96
2022-09-24T11:01:08.602Z,56.50
2022-09-24T11:03:42.932Z,57.89
2022-09-24T11:06:23.010Z,56.57
2022-09-24T11:09:19.615Z,59.59
2022-09-24T11:12:06.561Z,57.08
2022-09-24T11:15:04.376Z,57.82
2022-09-24T11:17:42.829Z,53.25
2022-09-24T11:20:20.496Z,53.16
2022-09-24T11:23:02.361Z,54.02
2022-09-24T11:25:49.872Z,56.11
2022-09-24T11:28:40.147Z,55.55
2022-09-24T11:31:19.688Z,54.48
2022-09-24T11:34:15.721Z,54.86
2022-09-24T11:37:30.410Z,52.81
2022-09-24T11:40:35.706Z,54.11
2022-09-24T11:43:27.296Z,55.58
2022-09-24T11:46:03.211Z,56.84
2022-09-24T11:49:14.422Z,57.47
2022-09-24T11:51:51.908Z,55.53
2022-09-24T11:54:27.895Z,56.85
2022-09-24T11:57:02.826Z,57.84
2022-09-24T11:59:38.224Z,53.64
2022-09-24T12:02:45.175Z,52.80
2022-09-24T12:05:35.839Z,55.69
2022-09-24T12:08:16.215Z,54.18
2022-09-24T12:11:09.575Z,56.42
2022-09-24T12:13:48.450Z,55.11
2022-09-24T12:16:24.405Z,54.56
2022-09-24T12:18:59.023Z,53.53
2022-09-24T12:21:47.905Z,53.28
2022-09-24T12:24:59.505Z,54.48
2022-09-24T12:27:37.628Z,53.47
2022-09-24T12:30:51.260Z,53.49
2022-09-24T12:33:36.045Z,54.93
2022-09-24T12:36:15.189Z,54.37
2022-09-24T12:38:51.495Z,53.98
2022-09-24T12:41:37.892Z,55.28
2022-09-24T12:44:10.877Z,55.51
2022-09-24T12:46:45.865Z,56.45
2022-09-24T12:49:21.549Z,56.36
2022-09-24T12:51:48.302Z,58.14
2022-09-24T12:54:34.439Z,56.32
2022-09-24T12:57:18.224Z,56.66
2022-09-24T12:59:49.767Z,64.51
2022-09-24T13:02:29.879Z,66.24
2022-09-24T13:05:05.227Z,69.06
2022-09-24T13:07:34.029Z,66.35
2022-09-24T13:10:15.966Z,64.81
2022-09-24T13:12:44.737Z,72.63
2022-09-24T13:15:30.675Z,74.75
2022-09-24T13:18:10.347Z,77.12
2022-09-24T13:20:38.245Z,80.37
2022-09-24T13:23:20.704Z,81.20
2022-09-24T13:25:58.562Z,77.68
2022-09-24T13:28:38.462Z,75.64
2022-09-24T13:31:13.218Z,78.46
2022-09-24T13:33:44.431Z,79.59
2022-09-24T13:36:16.496Z,75.94
2022-09-24T13:38:46.056Z,74.07
2022-09-24T13:41:32.418Z,69.11
2022-09-24T13:44:16.737Z,61.62
2022-09-24T13:46:47.670Z,69.63
2022-09-24T13:49:19.416Z,73.16
2022-09-24T13:51:56.817Z,66.60
2022-09-24T13:54:26.525Z,72.50
2022-09-24T13:57:12.851Z,64.38
2022-09-24T13:59:40.222Z,74.49
2022-09-24T14:02:25.815Z,74.49
2022-09-24T14:05:01.679Z,72.62
2022-09-24T14:07:30.035Z,74.29
2022-09-24T14:10:13.349Z,74.77
2022-09-24T14:12:40.655Z,71.73
2022-09-24T14:15:15.553Z,74.41
2022-09-24T14:17:42.675Z,74.84
2022-09-24T14:20:15.927Z,74.29
2022-09-24T14:22:45.961Z,76.50
2022-09-24T14:25:35.648Z,72.01
2022-09-24T14:28:03.712Z,72.41
2022-09-24T14:30:34.024Z,77.32
2022-09-24T14:33:07.424Z,77.40
2022-09-24T14:35:37.324Z,79.47
2022-09-24T14:38:16.449Z,70.35
2022-09-24T14:40:51.207Z,78.69
2022-09-24T14:43:23.875Z,80.49
2022-09-24T14:45:52.293Z,67.88
2022-09-24T14:48:32.464Z,71.76
2022-09-24T14:50:59.937Z,72.00
2022-09-24T14:53:38.016Z,67.34
2022-09-24T14:56:20.392Z,68.64
2022-09-24T14:58:47.241Z,69.22
2022-09-24T15:01:16.650Z,69.58
2022-09-24T15:03:56.212Z,68.77
2022-09-24T15:06:26.277Z,68.67
2022-09-24T15:08:54.067Z,69.08
2022-09-24T15:11:21.478Z,72.07
2022-09-24T15:13:58.595Z,80.93
2022-09-24T15:16:32.166Z,85.64
2022-09-24T15:19:20.540Z,86.26
2022-09-24T15:21:49.515Z,88.39
2022-09-24T15:24:17.667Z,87.39
2022-09-24T15:26:47.880Z,89.21
2022-09-24T15:29:24.510Z,92.17
2022-09-24T15:31:55.228Z,94.36
2022-09-24T15:34:22.604Z,95.95
2022-09-24T15:36:55.392Z,92.47
2022-09-24T15:39:23.536Z,96.59
2022-09-24T15:41:50.297Z,95.19
2022-09-24T15:44:23.128Z,98.70
2022-09-24T15:46:53.076Z,100.00
2022-09-24T15:49:22.335Z,100.00
2022-09-24T15:52:12.172Z,100.00
2022-09-24T15:54:38.875Z,100.00
2022-09-24T15:57:05.642Z,100.00
2022-09-24T15:59:34.593Z,100.00
2022-09-24T16:02:04.017Z,100.00
2022-09-24T16:04:30.906Z,100.00
2022-09-24T16:06:57.846Z,100.00
2022-09-24T16:09:24.824Z,100.00
2022-09-24T16:11:51.575Z,100.00
2022-09-24T16:14:18.481Z,100.00
2022-09-24T16:16:45.312Z,100.00
2022-09-24T16:19:12.879Z,100.00
2022-09-24T16:21:39.832Z,100.00
2022-09-24T16:24:06.816Z,100.00
2022-09-24T16:26:34.609Z,100.00
2022-09-24T16:29:06.034Z,100.00
2022-09-24T16:31:33.311Z,100.00
2022-09-24T16:34:00.320Z,100.00
2022-09-24T16:36:27.262Z,100.00
2022-09-24T16:38:54.267Z,100.00
2022-09-24T16:41:23.417Z,100.00
2022-09-24T16:43:56.001Z,100.00
2022-09-24T16:46:23.250Z,100.00
2022-09-24T16:48:50.545Z,100.00
2022-09-24T16:51:17.558Z,100.00
2022-09-24T16:53:48.713Z,100.00
2022-09-24T16:56:17.781Z,100.00
2022-09-24T16:58:46.940Z,100.00
2022-09-24T17:01:16.527Z,100.00
2022-09-24T17:03:44.318Z,100.00
2022-09-24T17:06:22.784Z,100.00
2022-09-24T17:09:08.417Z,100.00
2022-09-24T17:11:36.109Z,100.00
2022-09-24T17:14:03.386Z,100.00
2022-09-24T17:16:30.518Z,100.00
2022-09-24T17:18:57.508Z,100.00
2022-09-24T17:21:24.507Z,100.00
2022-09-24T17:23:52.116Z,100.00
2022-09-24T17:26:22.648Z,100.00
2022-09-24T17:28:52.630Z,100.00
2022-09-24T17:31:21.744Z,100.00
2022-09-24T17:33:59.576Z,100.00
2022-09-24T17:36:27.645Z,100.00
2022-09-24T17:38:55.416Z,100.00
2022-09-24T17:41:23.594Z,100.00
2022-09-24T17:43:51.619Z,100.00
2022-09-24T17:46:22.833Z,100.00
2022-09-24T17:48:52.656Z,100.00
2022-09-24T17:51:25.277Z,100.00
2022-09-24T17:53:54.178Z,100.00
2022-09-24T17:56:25.835Z,100.00
2022-09-24T17:58:55.262Z,100.00
2022-09-24T18:01:24.820Z,100.00
2022-09-24T18:03:56.213Z,100.00
2022-09-24T18:06:28.141Z,100.00
2022-09-24T18:08:59.997Z,100.00
2022-09-24T18:11:38.022Z,100.00
2022-09-24T18:14:05.975Z,100.00
2022-09-24T18:16:35.168Z,100.00
2022-09-24T18:19:03.653Z,100.00
2022-09-24T18:21:31.678Z,100.00
2022-09-24T18:24:00.976Z,100.00
2022-09-24T18:26:32.771Z,100.00
2022-09-24T18:29:02.205Z,100.00
2022-09-24T18:31:30.590Z,100.00
2022-09-24T18:34:05.701Z,100.00
2022-09-24T18:36:38.579Z,100.00
2022-09-24T18:39:08.127Z,100.00
2022-09-24T18:41:36.869Z,100.00
2022-09-24T18:44:05.121Z,100.00
2022-09-24T18:46:34.007Z,100.00
2022-09-24T18:49:02.889Z,100.00
2022-09-24T18:51:33.248Z,100.00
2022-09-24T18:54:03.264Z,100.00
2022-09-24T18:56:31.733Z,100.00
2022-09-24T18:59:09.448Z,100.00
2022-09-24T19:01:38.435Z,100.00
2022-09-24T19:04:08.236Z,100.00
2022-09-24T19:06:36.350Z,100.00
2022-09-24T19:09:05.260Z,100.00
2022-09-24T19:11:34.471Z,100.00
2022-09-24T19:14:04.645Z,100.00
2022-09-24T19:16:32.651Z,100.00
2022-09-24T19:19:01.266Z,100.00
2022-09-24T19:21:29.688Z,100.00
2022-09-24T19:23:59.528Z,100.00
2022-09-24T19:26:32.006Z,100.00
2022-09-24T19:28:59.601Z,100.00
2022-09-24T19:31:38.725Z,100.00
2022-09-24T19:34:08.163Z,100.00
2022-09-24T19:36:45.054Z,100.00
2022-09-24T19:39:15.489Z,100.00
2022-09-24T19:41:43.899Z,100.00
2022-09-24T19:44:12.488Z,100.00
2022-09-24T19:46:40.467Z,100.00
2022-09-24T19:49:08.799Z,100.00
2022-09-24T19:51:37.196Z,100.00
2022-09-24T19:54:07.340Z,100.00
2022-09-24T19:56:37.263Z,100.00
2022-09-24T19:59:05.056Z,100.00
2022-09-24T20:01:34.530Z,100.00
2022-09-24T20:04:05.223Z,100.00
2022-09-24T20:06:34.072Z,100.00
2022-09-24T20:09:01.481Z,100.00
2022-09-24T20:11:29.993Z,100.00
2022-09-24T20:13:57.446Z,100.00
2022-09-24T20:16:27.258Z,100.00
2022-09-24T20:19:05.656Z,100.00
2022-09-24T20:21:44.418Z,100.00
2022-09-24T20:24:14.556Z,100.00
2022-09-24T20:27:04.902Z,100.00
2022-09-24T20:29:46.508Z,100.00
2022-09-24T20:32:19.626Z,100.00
2022-09-24T20:34:46.501Z,100.00
2022-09-24T20:37:14.335Z,100.00
2022-09-24T20:39:41.602Z,100.00
2022-09-24T20:42:13.411Z,100.00
2022-09-24T20:44:50.043Z,100.00
2022-09-24T20:47:28.163Z,100.00
2022-09-24T20:50:05.421Z,100.00
2022-09-24T20:52:41.131Z,100.00
2022-09-24T20:55:20.421Z,100.00
2022-09-24T20:57:52.982Z,100.00
2022-09-24T21:00:22.247Z,100.00
2022-09-24T21:02:55.083Z,100.00
2022-09-24T21:05:28.455Z,100.00
2022-09-24T21:08:04.711Z,100.00
2022-09-24T21:10:38.288Z,100.00
2022-09-24T21:16:06.012Z,100.00
2022-09-24T21:18:40.779Z,100.00
2022-09-24T21:21:15.662Z,100.00
2022-09-24T21:23:44.312Z,100.00
2022-09-24T21:26:34.641Z,100.00
2022-09-24T21:29:33.728Z,100.00
2022-09-24T21:32:22.322Z,100.00
2022-09-24T21:35:16.065Z,100.00
2022-09-24T21:37:53.450Z,100.00
2022-09-24T21:43:02.053Z,100.00
2022-09-24T21:45:29.301Z,100.00
2022-09-24T21:47:58.947Z,100.00
2022-09-24T21:50:28.327Z,100.00
2022-09-24T21:52:55.216Z,100.00
2022-09-24T21:55:21.959Z,100.00
2022-09-24T21:57:50.901Z,100.00
2022-09-24T22:00:20.361Z,100.00
2022-09-24T22:05:47.222Z,100.00
2022-09-24T22:08:23.966Z,100.00
2022-09-24T22:11:03.998Z,100.00
2022-09-24T22:13:35.718Z,100.00
2022-09-24T22:16:12.721Z,100.00
2022-09-24T22:18:46.957Z,100.00
2022-09-24T22:21:22.706Z,100.00
2022-09-24T22:23:53.715Z,100.00
2022-09-24T22:26:21.461Z,100.00
2022-09-24T22:28:53.915Z,100.00
2022-09-24T22:31:23.800Z,100.00
2022-09-24T22:34:13.505Z,100.00
2022-09-24T22:36:53.090Z,100.00
2022-09-24T22:39:22.399Z,100.00
2022-09-24T22:41:52.880Z,100.00
2022-09-24T22:44:24.821Z,100.00
2022-09-24T22:46:54.117Z,100.00
2022-09-24T22:49:26.841Z,100.00
2022-09-24T22:52:02.125Z,100.00
2022-09-24T22:54:31.949Z,100.00
2022-09-24T23:04:05.843Z,100.00
2022-09-24T23:06:36.365Z,100.00
2022-09-24T23:09:03.761Z,100.00
2022-09-24T23:11:33.382Z,100.00
2022-09-24T23:14:08.261Z,100.00
2022-09-24T23:16:43.993Z,100.00
2022-09-24T23:19:19.932Z,100.00
2022-09-24T23:21:47.815Z,100.00
2022-09-24T23:24:20.154Z,100.00
2022-09-24T23:26:51.370Z,100.00
2022-09-24T23:29:27.580Z,100.00
2022-09-24T23:31:54.875Z,100.00
2022-09-24T23:34:21.999Z,100.00
2022-09-24T23:36:49.410Z,100.00
2022-09-24T23:39:16.523Z,100.00
2022-09-24T23:41:44.862Z,100.00
2022-09-24T23:44:12.457Z,100.00
2022-09-24T23:46:45.721Z,100.00
2022-09-24T23:49:12.817Z,100.00
2022-09-24T23:51:42.595Z,100.00
2022-09-24T23:54:09.370Z,100.00
2022-09-24T23:56:38.856Z,100.00
2022-09-24T23:59:06.087Z,100.00
